NCAR-RAP Real-Time Weather Data

Output produced by METARs form (20 January 2018  03:37 UTC)
found at http://weather.rap.ucar.edu/surface/
 
KHCO 200315Z AUTO 21007KT 10SM CLR M05/M06 A2957 RMK AO2
KHCO 200255Z AUTO 21006KT 10SM CLR M05/M06 A2956 RMK AO2
KHCO 200235Z AUTO 22004KT 10SM CLR M04/M05 A2955 RMK AO2
KHCO 200215Z AUTO 22006KT 10SM CLR M04/M06 A2955 RMK AO2
KHCO 200155Z AUTO 22006KT 10SM CLR M04/M06 A2955 RMK AO2
 
KROX 200335Z AUTO 23005KT 10SM SCT026 M01/M03 A2956 RMK AO2
KROX 200315Z AUTO 22005KT 10SM OVC026 M01/M03 A2954 RMK AO2
KROX 200255Z AUTO 23004KT 10SM OVC026 01/M02 A2954 RMK AO2
KROX 200235Z AUTO 25004KT 10SM OVC026 01/M01 A2953 RMK AO2
KROX 200215Z AUTO 26005KT 10SM BKN026 01/M02 A2953 RMK AO2
KROX 200155Z AUTO 27004KT 10SM SCT026 01/M02 A2952 RMK AO2
 
KRRT 200315Z AUTO 24006KT 10SM OVC024 02/00 A2954 RMK AO2
KRRT 200255Z AUTO 25005KT 10SM OVC024 02/00 A2953 RMK AO2
KRRT 200235Z AUTO 26007KT 10SM OVC026 02/00 A2953 RMK AO2
KRRT 200215Z AUTO 27007KT 10SM OVC026 02/00 A2952 RMK AO2
KRRT 200155Z AUTO 28006KT 10SM BKN028 02/00 A2951 RMK AO2
 
KBDE 200253Z AUTO 27006KT 10SM FEW027 01/M02 A2951 RMK AO2 SLP005 T00111017 51014
KBDE 200153Z AUTO 30012KT 10SM FEW018 OVC024 02/M01 A2948 RMK AO2 PK WND 32026/0115 SLP994 T00171011
 
KGFK 200253Z 22010KT 10SM FEW060 FEW150 SCT190 00/M02 A2961 RMK AO2 SLP038 T00001017 53022
KGFK 200153Z 25008KT 10SM FEW040 SCT120 BKN190 01/M01 A2959 RMK AO2 SLP031 T00111011
 
KRDR 200256Z AUTO 26008KT 10SM SCT190 00/M02 A2961 RMK AO2 SLP041 T00021022 52022 $
KRDR 200156Z AUTO 30008KT 10SM BKN190 02/M01 A2959 RMK AO2 SLP034 T00241014 $
 
KCKN 200315Z AUTO 26012KT 10SM CLR 01/M02 A2962 RMK AO2
KCKN 200255Z AUTO 25011KT 10SM CLR 01/M01 A2962 RMK AO2
KCKN 200235Z AUTO 26009KT 10SM CLR 01/M01 A2961 RMK AO2
KCKN 200215Z AUTO 25010KT 10SM CLR 00/M01 A2961 RMK AO2
KCKN 200155Z AUTO 24008KT 10SM CLR 01/M02 A2960 RMK AO2
 
KFSE 200315Z AUTO 23007KT 10SM CLR M03/M03 A2962 RMK AO2
KFSE 200255Z AUTO 22006KT 10SM CLR M03/M04 A2961 RMK AO2
KFSE 200235Z AUTO 23007KT 10SM CLR M03/M05 A2961 RMK AO2
KFSE 200215Z AUTO 23006KT 10SM CLR M02/M04 A2959 RMK AO2
KFSE 200155Z AUTO 22006KT 10SM CLR M02/M04 A2958 RMK AO2
 
KTVF 200301Z AUTO 25008KT 10SM CLR 00/M02 A2959 RMK AO2 SLP037 T00001017 53012 FZRANO
KTVF 200201Z AUTO 27008KT 10SM CLR 01/M01 A2957 RMK AO2 SLP027 T00111011 FZRANO
 
KVWU 200315Z AUTO 23006KT 10SM SCT022 M01/M02 A2956 RMK AO2
KVWU 200255Z AUTO 23006KT 10SM BKN020 M01/M02 A2956 RMK AO2
KVWU 200235Z AUTO 23006KT 10SM OVC018 M01/M02 A2955 RMK AO2
KVWU 200215Z AUTO 25004KT 10SM BKN018 M01/M02 A2954 RMK AO2
KVWU 200155Z AUTO 26005KT 10SM SCT018 00/M02 A2953 RMK AO2
 
KBJI 200315Z AUTO 24005KT 10SM CLR M01/M02 A2959 RMK AO2 T10061021
KBJI 200255Z AUTO 23007KT 10SM CLR 00/M02 A2958 RMK AO2 T10051020
KBJI 200235Z AUTO 25006KT 10SM CLR 00/M02 A2956 RMK AO2 T10041020
KBJI 200215Z AUTO 22006KT 10SM CLR 00/M02 A2955 RMK AO2 T00001020
KBJI 200155Z AUTO 24006KT 10SM CLR 01/M02 A2954 RMK AO2 T00051016
 
KFAR 200253Z 26008KT 10SM CLR 01/M02 A2965 RMK AO2 SLP051 T00111017 53018
KFAR 200153Z 24008KT 10SM CLR 01/M01 A2964 RMK AO2 PRESRR SLP047 T00061011
 
KJKJ 200335Z AUTO 28008KT 10SM CLR M01/M03 A2967 RMK AO2
KJKJ 200315Z AUTO 28008KT 10SM CLR M01/M03 A2966 RMK AO2
KJKJ 200255Z AUTO 26006KT 10SM CLR M01/M03 A2966 RMK AO2
KJKJ 200235Z AUTO 26006KT 10SM CLR M01/M03 A2966 RMK AO2
KJKJ 200215Z AUTO 26004KT 10SM CLR M01/M02 A2965 RMK AO2
KJKJ 200155Z AUTO 25004KT 10SM CLR 01/M02 A2964 RMK AO2
 
KDTL 200315Z AUTO 27008KT 10SM CLR 01/M01 A2965 RMK AO2
KDTL 200255Z AUTO 28009KT 10SM CLR 01/M01 A2965 RMK AO2
KDTL 200235Z AUTO 27008KT 10SM CLR 01/M01 A2964 RMK AO2
KDTL 200215Z AUTO 27007KT 10SM CLR 01/M01 A2963 RMK AO2
KDTL 200155Z AUTO 27008KT 10SM CLR 01/00 A2962 RMK AO2
 
KPKD 200253Z AUTO 28009KT 10SM CLR M01/M03 A2961 RMK AO2 SLP046 T10061028 53028
KPKD 200153Z AUTO 27009KT 10SM CLR M01/M03 A2957 RMK AO2 SLP031 T10061033
 
KSAZ 200315Z AUTO 27006KT 10SM CLR M02/M04 A2964 RMK AO2
KSAZ 200255Z AUTO 28007KT 10SM CLR M01/M03 A2963 RMK AO2
KSAZ 200235Z AUTO 27008KT 10SM CLR M01/M03 A2962 RMK AO2
KSAZ 200215Z AUTO 27007KT 10SM CLR M01/M03 A2961 RMK AO2
KSAZ 200155Z AUTO 27007KT 10SM CLR M01/M03 A2960 RMK AO2
 
KFFM 200315Z AUTO 28003KT 10SM CLR M02/M02 A2967 RMK AO2
KFFM 200255Z AUTO 26003KT 10SM CLR M01/M01 A2966 RMK AO2
KFFM 200235Z AUTO 26004KT 10SM CLR M01/M01 A2965 RMK AO2
KFFM 200215Z AUTO 26004KT 10SM CLR M02/M02 A2965 RMK AO2
KFFM 200155Z AUTO 27005KT 10SM CLR M01/M02 A2964 RMK AO2
 
KADC 200315Z AUTO 26006KT 10SM CLR M01/M03 A2964 RMK AO2
KADC 200255Z AUTO 26006KT 10SM CLR M01/M03 A2963 RMK AO2
KADC 200235Z AUTO 25007KT 10SM CLR M01/M03 A2963 RMK AO2
KADC 200215Z AUTO 26007KT 10SM CLR M01/M03 A2961 RMK AO2
KADC 200155Z AUTO 26006KT 10SM CLR M01/M03 A2960 RMK AO2
 
KFGN 200315Z AUTO 29007KT 10SM BKN019 OVC024 01/M02 A2950 RMK AO2
KFGN 200255Z AUTO 31010KT 10SM OVC019 01/M02 A2950 RMK AO2
KFGN 200235Z AUTO 31007KT 10SM BKN021 BKN030 01/M01 A2949 RMK AO2
KFGN 200215Z AUTO 30011KT 10SM BKN032 01/M02 A2949 RMK AO2
KFGN 200155Z AUTO 30015KT 10SM UP OVC032 01/M01 A2948 RMK AO2